Time;durP1;ratioP1;P1;durP2;ratioP2;P2;SDS_P1;SDS_P2;PMS_P1;PMS_P2;Temp;Humidity;BMP_temperature;BMP_pressure;BME280_temperature;BME280_humidity;BME280_pressure;Samples;Min_cycle;Max_cycle;Signal;HPM_P1;HPM_P2
2023/10/01 04:30:34;;;;;;;0.00;0.00;;;16.00;81.60;;;;;;5792058;23;21249;-76
2023/10/01 04:33:16;;;;;;;0.00;0.00;;;16.00;81.50;;;;;;4873998;29;20412;-76
2023/10/01 04:35:51;;;;;;;0.00;0.00;;;16.00;81.60;;;;;;4890307;29;20489;-76
2023/10/01 04:38:19;;;;;;;0.10;0.10;;;16.10;81.60;;;;;;4899712;29;20099;-75
2023/10/01 04:40:48;;;;;;;0.00;0.00;;;16.00;81.50;;;;;;4892245;29;20419;-76
2023/10/01 04:43:19;;;;;;;0.00;0.00;;;16.10;81.50;;;;;;4864348;29;20461;-76
2023/10/01 04:45:45;;;;;;;0.10;0.10;;;16.00;81.40;;;;;;4899986;29;20037;-76
2023/10/01 04:48:24;;;;;;;0.00;0.00;;;16.00;81.40;;;;;;4903428;29;20017;-76
2023/10/01 04:50:54;;;;;;;0.00;0.00;;;16.00;81.60;;;;;;4885261;29;20029;-77
2023/10/01 04:53:25;;;;;;;0.00;0.00;;;16.00;81.70;;;;;;4884837;29;20050;-76
2023/10/01 04:56:00;;;;;;;0.03;0.03;;;16.00;81.80;;;;;;4884798;29;20031;-76
2023/10/01 04:58:27;;;;;;;0.03;0.03;;;15.90;81.90;;;;;;4884616;29;20033;-76
2023/10/01 05:00:55;;;;;;;0.00;0.00;;;16.00;82.00;;;;;;4884013;29;20029;-77
2023/10/01 05:03:36;;;;;;;0.10;0.10;;;15.90;81.90;;;;;;4901219;29;20096;-76
2023/10/01 05:06:02;;;;;;;0.00;0.00;;;15.80;82.10;;;;;;4886086;29;20033;-77
2023/10/01 05:08:38;;;;;;;0.00;0.00;;;15.90;82.10;;;;;;4903181;29;20032;-77
2023/10/01 05:11:10;;;;;;;0.00;0.00;;;15.90;82.10;;;;;;4895187;29;20029;-77
2023/10/01 05:13:39;;;;;;;0.00;0.00;;;15.90;82.10;;;;;;4884414;29;20050;-77
2023/10/01 05:16:06;;;;;;;0.10;0.10;;;15.80;82.20;;;;;;4886711;29;20460;-76
2023/10/01 05:18:37;;;;;;;0.00;0.00;;;15.70;82.40;;;;;;4884555;29;20104;-77
2023/10/01 05:21:12;;;;;;;0.00;0.00;;;15.80;82.50;;;;;;4886425;29;20036;-76
2023/10/01 05:23:42;;;;;;;0.00;0.00;;;15.80;82.50;;;;;;4903049;29;20035;-76
2023/10/01 05:26:11;;;;;;;0.10;0.10;;;15.80;82.30;;;;;;4886326;29;20036;-77
2023/10/01 05:28:41;;;;;;;0.15;0.10;;;15.80;82.20;;;;;;4895869;29;20054;-77
2023/10/01 05:31:14;;;;;;;0.00;0.00;;;15.80;82.30;;;;;;4886513;29;20049;-77
2023/10/01 05:33:46;;;;;;;0.10;0.10;;;15.80;82.50;;;;;;4900464;29;20031;-76
2023/10/01 05:36:16;;;;;;;0.10;0.10;;;15.80;82.30;;;;;;4882648;29;20037;-77
2023/10/01 05:38:43;;;;;;;0.10;0.10;;;15.80;82.30;;;;;;4884040;29;20021;-77
2023/10/01 05:41:13;;;;;;;0.00;0.00;;;15.80;82.10;;;;;;4896783;29;20028;-76
2023/10/01 05:43:43;;;;;;;0.00;0.00;;;15.70;82.30;;;;;;4902787;29;20028;-76
2023/10/01 05:46:09;;;;;;;0.00;0.00;;;15.70;82.40;;;;;;4886608;29;20029;-76
2023/10/01 05:48:39;;;;;;;0.00;0.00;;;15.60;82.60;;;;;;4883941;29;20052;-76
2023/10/01 05:51:12;;;;;;;0.05;0.05;;;15.70;82.60;;;;;;4883866;29;20112;-76
2023/10/01 05:53:41;;;;;;;0.03;0.03;;;15.60;82.70;;;;;;4883796;29;20029;-77
2023/10/01 05:56:10;;;;;;;0.00;0.00;;;15.60;82.80;;;;;;4883656;29;20089;-77
2023/10/01 05:58:38;;;;;;;0.00;0.00;;;15.60;82.80;;;;;;4883248;29;20039;-76
2023/10/01 06:01:13;;;;;;;0.00;0.00;;;15.60;82.90;;;;;;4883377;29;20021;-76
2023/10/01 06:03:44;;;;;;;0.00;0.00;;;15.60;82.80;;;;;;4879645;29;20029;-76
2023/10/01 06:06:25;;;;;;;0.05;0.05;;;15.60;83.00;;;;;;4883568;29;20056;-76
2023/10/01 06:09:01;;;;;;;0.08;0.08;;;15.50;83.00;;;;;;4875560;29;20037;-76
2023/10/01 06:11:38;;;;;;;0.10;0.10;;;15.50;83.00;;;;;;4883675;29;20397;-77
2023/10/01 06:14:09;;;;;;;0.10;0.10;;;15.50;82.90;;;;;;4883162;29;20116;-77
2023/10/01 06:16:37;;;;;;;0.10;0.10;;;15.50;83.20;;;;;;4883478;29;20025;-76
2023/10/01 06:19:07;;;;;;;0.00;0.00;;;15.50;83.10;;;;;;4883360;29;20036;-76
2023/10/01 06:21:34;;;;;;;0.10;0.10;;;15.50;82.90;;;;;;4889384;29;20040;-77
2023/10/01 06:24:04;;;;;;;0.03;0.03;;;15.50;82.90;;;;;;4901930;29;20056;-76
2023/10/01 06:26:37;;;;;;;0.03;0.03;;;15.60;82.90;;;;;;4890997;29;20025;-76
2023/10/01 06:29:11;;;;;;;0.00;0.00;;;15.50;83.00;;;;;;4883183;29;20037;-76
2023/10/01 06:32:00;;;;;;;0.00;0.00;;;15.50;82.90;;;;;;4885775;29;20040;-79
2023/10/01 06:34:31;;;;;;;0.10;0.10;;;15.60;83.00;;;;;;4883665;29;20127;-79
2023/10/01 06:36:58;;;;;;;0.03;0.03;;;15.60;82.90;;;;;;4883093;29;20029;-78
2023/10/01 06:39:30;;;;;;;0.00;0.00;;;15.60;82.90;;;;;;4882817;29;20037;-78
2023/10/01 06:44:41;;;;;;;0.10;0.10;;;15.60;82.70;;;;;;4883221;29;20047;-77
2023/10/01 06:47:14;;;;;;;0.10;0.10;;;15.60;82.80;;;;;;4882625;29;20475;-77
2023/10/01 06:49:57;;;;;;;;;;;15.60;82.90;;;;;;4883238;29;20104;-77
2023/10/01 06:52:34;;;;;;;0.10;0.10;;;15.60;82.80;;;;;;4882958;29;19916;-76
2023/10/01 06:55:04;;;;;;;0.05;0.05;;;15.60;82.80;;;;;;4884210;29;20032;-79
2023/10/01 06:57:33;;;;;;;0.10;0.10;;;15.70;82.80;;;;;;4882936;29;20465;-78
2023/10/01 07:00:03;;;;;;;0.10;0.10;;;15.80;82.50;;;;;;4879809;29;20028;-78
2023/10/01 07:02:29;;;;;;;0.10;0.10;;;15.80;82.40;;;;;;4897730;29;20032;-78
2023/10/01 07:04:58;;;;;;;0.10;0.10;;;15.80;82.30;;;;;;4900572;29;20064;-78
2023/10/01 07:07:28;;;;;;;0.10;0.10;;;16.00;82.20;;;;;;4890747;29;20049;-77
2023/10/01 07:09:56;;;;;;;0.20;0.20;;;16.30;81.50;;;;;;4893617;29;20024;-77
2023/10/01 07:12:23;;;;;;;0.20;0.20;;;16.70;80.20;;;;;;4898432;29;20044;-77
2023/10/01 07:14:50;;;;;;;0.10;0.10;;;17.20;79.70;;;;;;4895972;29;20488;-81
2023/10/01 07:17:24;;;;;;;2.78;2.67;;;18.30;76.10;;;;;;4900791;29;20028;-82
2023/10/01 07:19:59;;;;;;;0.20;0.20;;;19.60;71.20;;;;;;4885232;29;21475;-77
2023/10/01 07:22:38;;;;;;;0.10;0.10;;;20.30;69.30;;;;;;4881361;29;20043;-81
2023/10/01 07:25:04;;;;;;;0.30;0.30;;;21.70;65.60;;;;;;4888263;29;20064;-80
2023/10/01 07:27:30;;;;;;;15.27;14.68;;;22.90;60.90;;;;;;4872336;29;20033;-79
2023/10/01 07:29:56;;;;;;;0.32;0.32;;;23.90;57.20;;;;;;4890328;29;20026;-79
2023/10/01 07:32:24;;;;;;;0.30;0.30;;;24.40;56.30;;;;;;4882713;29;20045;-82
2023/10/01 07:34:58;;;;;;;0.30;0.30;;;24.30;55.40;;;;;;4888550;29;20016;-81
2023/10/01 07:37:25;;;;;;;0.88;0.88;;;24.50;55.20;;;;;;4889299;29;20029;-82
2023/10/01 07:39:55;;;;;;;0.30;0.30;;;24.30;54.50;;;;;;4892672;29;20032;-81
2023/10/01 07:42:27;;;;;;;0.30;0.30;;;24.30;55.80;;;;;;4891464;29;20040;-82
2023/10/01 07:44:56;;;;;;;0.10;0.10;;;23.70;56.20;;;;;;4890441;29;20040;-80
2023/10/01 07:47:28;;;;;;;0.28;0.28;;;23.30;57.90;;;;;;4890145;29;20144;-79
2023/10/01 07:50:03;;;;;;;0.00;0.00;;;22.10;60.50;;;;;;4891368;29;20435;-78
2023/10/01 07:52:36;;;;;;;0.00;0.00;;;21.10;64.00;;;;;;4889855;29;20061;-78
2023/10/01 07:55:29;;;;;;;0.00;0.00;;;20.30;66.80;;;;;;4889656;29;20029;-77
2023/10/01 07:57:49;;;;;;;0.00;0.00;;;19.70;69.00;;;;;;4890713;29;20040;-78
2023/10/01 08:00:28;;;;;;;0.00;0.00;;;19.30;70.80;;;;;;4886122;29;20025;-78
2023/10/01 08:05:39;;;;;;;0.00;0.00;;;19.10;72.20;;;;;;4883785;29;20051;-78
2023/10/01 08:08:09;;;;;;;0.00;0.00;;;19.00;72.90;;;;;;4889483;29;20032;-78
2023/10/01 08:10:37;;;;;;;0.00;0.00;;;18.90;73.30;;;;;;4896708;29;20450;-78
2023/10/01 08:13:24;;;;;;;0.00;0.00;;;18.90;74.20;;;;;;4884293;29;20484;-80
2023/10/01 08:15:59;;;;;;;0.00;0.00;;;18.80;74.00;;;;;;4888457;29;20018;-82
2023/10/01 08:18:39;;;;;;;0.00;0.00;;;18.80;74.40;;;;;;4891493;29;20080;-81
2023/10/01 08:21:15;;;;;;;0.10;0.10;;;18.80;75.00;;;;;;4890485;29;20119;-79
2023/10/01 08:23:54;;;;;;;0.00;0.00;;;18.90;75.00;;;;;;4891990;29;20028;-80
2023/10/01 08:26:41;;;;;;;0.00;0.00;;;18.90;75.00;;;;;;4895084;29;20020;-80
2023/10/01 08:29:07;;;;;;;0.00;0.00;;;18.90;75.30;;;;;;4890571;29;20028;-80
2023/10/01 08:34:23;;;;;;;0.10;0.10;;;19.00;75.80;;;;;;4889383;29;20029;-88
2023/10/01 08:36:57;;;;;;;0.00;0.00;;;19.10;75.70;;;;;;4894705;29;20025;-80
2023/10/01 08:42:12;;;;;;;0.00;0.00;;;19.20;75.70;;;;;;4893419;29;20044;-81
2023/10/01 08:44:49;;;;;;;0.05;0.05;;;19.30;75.90;;;;;;4876672;29;20032;-81
2023/10/01 08:47:31;;;;;;;0.00;0.00;;;19.30;75.80;;;;;;4891759;29;20032;-79
2023/10/01 08:52:52;;;;;;;0.00;0.00;;;19.50;75.60;;;;;;4889845;29;20173;-79
2023/10/01 08:55:21;;;;;;;0.10;0.10;;;19.60;75.80;;;;;;4892782;29;20996;-79
2023/10/01 08:57:52;;;;;;;0.00;0.00;;;19.60;76.00;;;;;;4892138;29;20029;-78
2023/10/01 09:00:20;;;;;;;0.05;0.05;;;19.70;75.50;;;;;;4895004;29;20036;-77
2023/10/01 09:03:07;;;;;;;0.00;0.00;;;19.80;76.10;;;;;;4893214;29;20037;-77
2023/10/01 09:05:34;;;;;;;0.00;0.00;;;19.80;75.70;;;;;;4878176;29;20057;-78
2023/10/01 09:08:14;;;;;;;0.00;0.00;;;19.90;75.70;;;;;;4902030;29;20034;-77
2023/10/01 09:10:53;;;;;;;0.10;0.10;;;19.90;76.10;;;;;;4903148;29;20064;-78
2023/10/01 09:13:22;;;;;;;0.00;0.00;;;20.00;75.80;;;;;;4899207;29;20028;-78
2023/10/01 09:15:55;;;;;;;0.10;0.10;;;20.10;75.90;;;;;;4902820;29;20032;-78
2023/10/01 09:18:24;;;;;;;0.00;0.00;;;20.10;76.00;;;;;;4877451;29;20084;-77
2023/10/01 09:21:08;;;;;;;0.10;0.10;;;20.20;75.40;;;;;;4889592;29;20120;-77
2023/10/01 09:23:55;;;;;;;0.10;0.10;;;20.30;75.60;;;;;;4894280;29;20025;-77
2023/10/01 09:26:42;;;;;;;0.00;0.00;;;20.40;75.30;;;;;;4877248;29;20120;-78
2023/10/01 09:29:25;;;;;;;0.10;0.10;;;20.40;75.50;;;;;;4884732;29;20021;-76
2023/10/01 09:31:52;;;;;;;0.00;0.00;;;20.60;75.50;;;;;;4886753;29;20500;-77
2023/10/01 09:34:31;;;;;;;0.00;0.00;;;20.70;74.90;;;;;;4891835;29;20056;-78
2023/10/01 09:37:33;;;;;;;0.00;0.00;;;20.80;74.40;;;;;;4875574;29;20044;-77
2023/10/01 09:42:57;;;;;;;0.00;0.00;;;20.90;74.10;;;;;;4893705;29;20096;-82
2023/10/01 09:45:29;;;;;;;0.00;0.00;;;20.90;74.60;;;;;;4875317;29;20062;-79
2023/10/01 09:48:03;;;;;;;0.00;0.00;;;21.00;75.00;;;;;;4893370;29;20048;-83
2023/10/01 09:50:39;;;;;;;0.00;0.00;;;21.00;74.40;;;;;;4884848;29;20105;-77
2023/10/01 09:53:12;;;;;;;0.00;0.00;;;21.20;74.90;;;;;;4889214;29;20052;-78
2023/10/01 09:55:47;;;;;;;0.00;0.00;;;21.30;75.10;;;;;;4898399;29;20025;-77
2023/10/01 09:58:28;;;;;;;0.10;0.10;;;21.30;74.40;;;;;;4873404;29;20504;-78
2023/10/01 10:01:08;;;;;;;0.00;0.00;;;21.30;74.60;;;;;;4879467;29;20025;-77
2023/10/01 10:03:38;;;;;;;0.00;0.00;;;21.40;74.50;;;;;;4896493;29;20496;-78
2023/10/01 10:06:08;;;;;;;0.08;0.08;;;21.50;73.60;;;;;;4869060;29;20029;-80
2023/10/01 10:08:39;;;;;;;0.00;0.00;;;21.60;74.20;;;;;;4894718;29;20159;-78
2023/10/01 10:11:13;;;;;;;0.00;0.00;;;21.60;73.60;;;;;;4878741;29;20421;-78
2023/10/01 10:13:48;;;;;;;0.00;0.00;;;21.70;73.50;;;;;;4892841;29;20061;-78
2023/10/01 10:19:15;;;;;;;0.00;0.00;;;21.90;73.70;;;;;;4891559;29;20059;-77
2023/10/01 10:22:05;;;;;;;0.00;0.00;;;22.00;73.20;;;;;;4872613;29;20036;-77
2023/10/01 10:24:35;;;;;;;0.00;0.00;;;22.10;73.20;;;;;;4869802;29;20456;-76
2023/10/01 10:27:15;;;;;;;0.00;0.00;;;22.20;72.70;;;;;;4891237;29;20036;-78
2023/10/01 10:29:49;;;;;;;0.00;0.00;;;22.30;72.40;;;;;;4898071;29;20097;-79
2023/10/01 10:32:14;;;;;;;0.00;0.00;;;22.40;72.00;;;;;;4883635;29;20120;-77
2023/10/01 10:35:05;;;;;;;0.00;0.00;;;22.50;72.00;;;;;;4890168;29;20025;-86
2023/10/01 10:37:36;;;;;;;0.00;0.00;;;22.50;72.50;;;;;;4890306;29;20031;-79
2023/10/01 10:42:58;;;;;;;0.00;0.00;;;22.70;72.70;;;;;;4898222;29;20028;-84
2023/10/01 10:45:31;;;;;;;0.00;0.00;;;22.70;72.50;;;;;;4917375;29;20060;-83
2023/10/01 10:48:04;;;;;;;0.00;0.00;;;22.80;72.70;;;;;;4920305;29;20078;-78
2023/10/01 10:50:48;;;;;;;0.00;0.00;;;22.90;71.90;;;;;;4907636;29;20105;-78
2023/10/01 10:53:22;;;;;;;0.00;0.00;;;23.00;71.50;;;;;;4882449;29;20033;-84
2023/10/01 10:56:06;;;;;;;0.00;0.00;;;23.10;72.30;;;;;;4882685;29;20036;-86
2023/10/01 10:58:45;;;;;;;0.00;0.00;;;23.10;72.30;;;;;;4883103;29;20430;-87
2023/10/01 11:01:22;;;;;;;0.00;0.00;;;23.20;71.70;;;;;;4884152;29;20028;-88
2023/10/01 11:03:58;;;;;;;0.00;0.00;;;23.30;71.70;;;;;;4872984;29;20021;-83
2023/10/01 11:09:25;;;;;;;0.00;0.00;;;23.40;71.50;;;;;;4883053;29;20523;-85
2023/10/01 11:12:05;;;;;;;0.00;0.00;;;23.50;70.40;;;;;;4889302;29;20029;-85
2023/10/01 11:14:32;;;;;;;0.00;0.00;;;23.60;71.00;;;;;;4888101;29;20021;-79
2023/10/01 11:16:57;;;;;;;0.00;0.00;;;23.60;71.10;;;;;;4900789;29;20029;-87
2023/10/01 11:19:35;;;;;;;0.00;0.00;;;23.80;71.30;;;;;;4887471;29;20449;-82
2023/10/01 11:22:06;;;;;;;0.00;0.00;;;23.80;70.70;;;;;;4891493;29;20033;-79
2023/10/01 11:24:39;;;;;;;0.00;0.00;;;23.80;70.50;;;;;;4870148;29;20033;-82
2023/10/01 11:27:20;;;;;;;0.00;0.00;;;23.90;70.80;;;;;;4869836;29;21238;-82
2023/10/01 11:29:59;;;;;;;0.00;0.00;;;24.00;70.10;;;;;;4871727;29;20092;-84
2023/10/01 11:35:32;;;;;;;0.05;0.05;;;24.10;70.10;;;;;;4888228;29;20100;-77
2023/10/01 11:38:08;;;;;;;0.00;0.00;;;24.20;69.90;;;;;;4893847;29;20036;-89
2023/10/01 11:43:35;;;;;;;0.00;0.00;;;24.40;70.50;;;;;;4891040;29;20044;-76
2023/10/01 11:46:20;;;;;;;0.00;0.00;;;24.50;70.30;;;;;;4867836;29;20040;-76
2023/10/01 11:48:57;;;;;;;0.00;0.00;;;24.60;69.90;;;;;;4884718;29;20098;-76
2023/10/01 11:51:45;;;;;;;0.00;0.00;;;24.80;68.70;;;;;;4864784;29;20024;-76
2023/10/01 11:54:12;;;;;;;0.00;0.00;;;24.80;68.00;;;;;;4883000;29;20036;-76
2023/10/01 11:56:43;;;;;;;0.00;0.00;;;24.80;67.90;;;;;;4885150;29;20025;-76
2023/10/01 11:59:19;;;;;;;0.00;0.00;;;24.80;66.70;;;;;;4894255;29;20060;-76
2023/10/01 12:01:50;;;;;;;0.08;0.08;;;24.90;68.10;;;;;;4889586;29;20530;-76
2023/10/01 12:04:43;;;;;;;0.00;0.00;;;25.00;67.90;;;;;;4883177;29;20025;-76
2023/10/01 12:07:16;;;;;;;0.00;0.00;;;25.10;67.70;;;;;;4885676;29;20128;-76
2023/10/01 12:09:48;;;;;;;;;;;25.10;67.70;;;;;;4868841;29;20083;-76
2023/10/01 12:12:15;;;;;;;0.00;0.00;;;25.20;67.60;;;;;;4883360;29;20268;-76
2023/10/01 12:14:54;;;;;;;0.00;0.00;;;25.20;67.90;;;;;;4880995;29;20033;-77
2023/10/01 12:17:40;;;;;;;0.00;0.00;;;25.20;67.30;;;;;;4892998;29;20024;-78
2023/10/01 12:20:21;;;;;;;0.00;0.00;;;25.30;67.70;;;;;;4884081;29;20647;-78
2023/10/01 12:23:04;;;;;;;0.00;0.00;;;25.40;67.00;;;;;;4867171;29;20029;-80
2023/10/01 12:28:15;;;;;;;0.00;0.00;;;25.40;66.30;;;;;;4894846;23;20055;-78
2023/10/01 12:30:41;;;;;;;0.00;0.00;;;25.50;65.70;;;;;;4869945;29;20790;-77
2023/10/01 12:33:07;;;;;;;0.00;0.00;;;25.60;65.70;;;;;;4880479;23;20708;-78
2023/10/01 12:35:34;;;;;;;0.00;0.00;;;25.70;64.50;;;;;;4894797;23;20067;-80
2023/10/01 12:40:40;;;;;;;0.00;0.00;;;25.80;65.50;;;;;;4884121;29;20056;-79
2023/10/01 12:46:09;;;;;;;0.00;0.00;;;25.90;64.50;;;;;;4865162;29;20040;-81
2023/10/01 12:48:36;;;;;;;0.00;0.00;;;26.00;65.40;;;;;;4873957;29;20017;-82
2023/10/01 12:51:07;;;;;;;0.00;0.00;;;26.00;64.60;;;;;;4883109;29;20492;-79
2023/10/01 12:53:53;;;;;;;0.00;0.00;;;26.00;64.50;;;;;;4888344;29;20558;-80
2023/10/01 12:56:35;;;;;;;0.00;0.00;;;25.90;64.30;;;;;;4888963;29;20025;-79
2023/10/01 12:59:00;;;;;;;0.00;0.00;;;25.80;64.80;;;;;;4890905;29;20020;-79
2023/10/01 13:01:32;;;;;;;0.00;0.00;;;25.80;64.80;;;;;;4867917;29;20340;-80
2023/10/01 13:06:46;;;;;;;0.00;0.00;;;26.00;64.10;;;;;;4891832;29;20065;-79
2023/10/01 13:09:35;;;;;;;0.00;0.00;;;26.20;64.50;;;;;;4868050;29;20024;-79
2023/10/01 13:12:13;;;;;;;0.00;0.00;;;26.20;64.60;;;;;;4866862;29;20032;-79
2023/10/01 13:14:40;;;;;;;0.00;0.00;;;26.30;64.10;;;;;;4861346;29;20044;-79
2023/10/01 13:17:05;;;;;;;0.00;0.00;;;26.20;63.30;;;;;;4887222;29;20412;-79
2023/10/01 13:19:34;;;;;;;0.00;0.00;;;26.30;63.50;;;;;;4872817;29;20021;-79
2023/10/01 13:22:04;;;;;;;0.00;0.00;;;26.30;63.30;;;;;;4871522;29;20041;-80
2023/10/01 13:24:31;;;;;;;0.00;0.00;;;26.30;63.30;;;;;;4889464;29;20041;-80
2023/10/01 13:27:10;;;;;;;0.00;0.00;;;26.40;63.60;;;;;;4871990;29;20492;-80
2023/10/01 13:29:39;;;;;;;0.00;0.00;;;26.40;63.00;;;;;;4890721;29;20025;-81
2023/10/01 13:32:15;;;;;;;0.00;0.00;;;26.50;63.70;;;;;;4871756;29;20484;-80
2023/10/01 13:35:21;;;;;;;0.00;0.00;;;26.60;63.30;;;;;;4872134;29;20037;-80
2023/10/01 13:37:42;;;;;;;0.00;0.00;;;26.80;62.10;;;;;;4892988;29;20024;-80
2023/10/01 14:08:43;;;;;;;0.00;0.00;;;26.80;62.10;;;;;;4894194;29;20060;-80
2023/10/01 14:10:21;;;;;;;0.00;0.00;;;26.80;60.90;;;;;;4890317;29;20040;-80
2023/10/01 14:12:56;;;;;;;0.00;0.00;;;26.90;61.50;;;;;;4894191;29;20694;-83
2023/10/01 14:15:23;;;;;;;0.00;0.00;;;26.90;61.30;;;;;;4875141;29;20025;-82
2023/10/01 14:17:52;;;;;;;0.00;0.00;;;26.90;62.50;;;;;;4873298;29;20088;-81
2023/10/01 14:20:37;;;;;;;0.00;0.00;;;26.90;62.10;;;;;;4888546;29;20139;-80
2023/10/01 14:23:07;;;;;;;0.00;0.00;;;26.90;62.10;;;;;;4889947;29;20064;-81
2023/10/01 14:28:22;;;;;;;0.00;0.00;;;26.90;62.10;;;;;;4892060;29;20047;-81
2023/10/01 14:30:51;;;;;;;0.00;0.00;;;26.90;62.40;;;;;;4886597;29;20143;-81
2023/10/01 14:33:25;;;;;;;0.00;0.00;;;26.80;62.00;;;;;;4884754;29;20037;-81
2023/10/01 14:35:53;;;;;;;0.00;0.00;;;26.80;61.70;;;;;;4870268;29;20052;-77
2023/10/01 14:38:21;;;;;;;0.00;0.00;;;26.80;61.80;;;;;;4893156;29;20025;-77
2023/10/01 14:40:56;;;;;;;0.00;0.00;;;26.80;61.90;;;;;;4891589;29;20111;-78
2023/10/01 14:43:24;;;;;;;0.00;0.00;;;26.70;62.60;;;;;;4885770;29;20036;-77
2023/10/01 14:45:51;;;;;;;0.00;0.00;;;26.70;62.30;;;;;;4882604;29;20060;-77
2023/10/01 14:48:17;;;;;;;0.00;0.00;;;26.60;62.50;;;;;;4882759;29;20148;-77
2023/10/01 14:50:43;;;;;;;0.00;0.00;;;26.60;63.10;;;;;;4883474;29;20127;-77
2023/10/01 14:53:13;;;;;;;0.00;0.00;;;26.60;62.60;;;;;;4866052;29;20037;-77
2023/10/01 14:55:42;;;;;;;0.00;0.00;;;26.60;63.00;;;;;;4866041;29;20053;-77
2023/10/01 14:58:14;;;;;;;0.00;0.00;;;26.70;62.50;;;;;;4893696;29;20036;-78
2023/10/01 15:00:54;;;;;;;0.00;0.00;;;26.60;62.70;;;;;;4872348;29;20025;-78
2023/10/01 15:03:33;;;;;;;0.00;0.00;;;26.60;62.30;;;;;;4886753;29;21111;-79
2023/10/01 15:06:08;;;;;;;0.00;0.00;;;26.50;62.60;;;;;;4893265;29;20041;-78
2023/10/01 15:08:38;;;;;;;0.00;0.00;;;26.40;62.40;;;;;;4870108;29;20084;-79
2023/10/01 15:11:14;;;;;;;0.00;0.00;;;26.40;62.50;;;;;;4867613;29;20029;-79
2023/10/01 15:13:44;;;;;;;0.00;0.00;;;26.40;62.70;;;;;;4895711;29;20059;-78
2023/10/01 15:16:15;;;;;;;0.00;0.00;;;26.40;63.20;;;;;;4890850;29;20032;-79
2023/10/01 15:18:46;;;;;;;0.00;0.00;;;26.40;63.80;;;;;;4871442;29;20031;-77
2023/10/01 15:21:30;;;;;;;0.00;0.00;;;26.40;63.20;;;;;;4886662;29;20108;-78
2023/10/01 15:23:59;;;;;;;0.00;0.00;;;26.40;63.20;;;;;;4892746;29;20545;-78
2023/10/01 15:26:29;;;;;;;0.00;0.00;;;26.40;63.60;;;;;;4892474;29;20442;-78
2023/10/01 15:28:55;;;;;;;0.00;0.00;;;26.30;63.80;;;;;;4890405;29;20104;-77
2023/10/01 15:31:33;;;;;;;0.00;0.00;;;26.40;63.90;;;;;;4889048;29;20049;-77
2023/10/01 15:34:15;;;;;;;0.00;0.00;;;26.50;64.20;;;;;;4869185;29;20036;-78
2023/10/01 15:36:46;;;;;;;0.00;0.00;;;26.50;64.40;;;;;;4890435;29;20397;-77
2023/10/01 15:39:14;;;;;;;0.00;0.00;;;26.50;64.50;;;;;;4874164;29;20033;-77
2023/10/01 15:41:46;;;;;;;0.00;0.00;;;26.50;64.80;;;;;;4888648;29;20044;-78
2023/10/01 15:44:12;;;;;;;0.00;0.00;;;26.40;64.50;;;;;;4884771;29;20053;-77
2023/10/01 15:46:41;;;;;;;0.00;0.00;;;26.30;65.10;;;;;;4887981;29;20399;-77
2023/10/01 15:49:19;;;;;;;0.00;0.00;;;26.30;65.20;;;;;;4871378;29;20029;-77
2023/10/01 15:51:49;;;;;;;0.00;0.00;;;26.30;65.60;;;;;;4886800;29;20033;-78
2023/10/01 15:54:25;;;;;;;0.00;0.00;;;26.30;65.60;;;;;;4892216;29;20025;-85
2023/10/01 15:56:53;;;;;;;0.00;0.00;;;26.30;65.50;;;;;;4883214;29;20103;-78
2023/10/01 15:59:20;;;;;;;0.00;0.00;;;26.30;65.20;;;;;;4869702;29;20062;-78
2023/10/01 16:01:53;;;;;;;0.00;0.00;;;26.30;64.80;;;;;;4898753;29;20024;-78
2023/10/01 16:04:23;;;;;;;0.00;0.00;;;26.20;65.00;;;;;;4898279;29;20777;-79
2023/10/01 16:07:00;;;;;;;0.00;0.00;;;26.20;64.60;;;;;;4885930;29;20045;-86
2023/10/01 16:09:38;;;;;;;0.00;0.00;;;26.20;64.90;;;;;;4863502;29;20073;-79
2023/10/01 16:12:09;;;;;;;0.00;0.00;;;26.20;64.90;;;;;;4884093;29;20029;-80
2023/10/01 16:14:36;;;;;;;0.00;0.00;;;26.10;64.90;;;;;;4885756;29;20037;-79
2023/10/01 16:17:20;;;;;;;0.00;0.00;;;26.00;65.00;;;;;;4874440;29;20111;-77
2023/10/01 16:19:54;;;;;;;0.00;0.00;;;25.90;65.50;;;;;;4869081;29;20116;-77
2023/10/01 16:22:27;;;;;;;0.00;0.00;;;25.80;65.90;;;;;;4873508;29;20403;-78
2023/10/01 16:24:55;;;;;;;0.00;0.00;;;25.80;65.80;;;;;;4872474;29;20044;-78
2023/10/01 16:27:32;;;;;;;0.00;0.00;;;25.80;66.30;;;;;;4868289;29;20049;-77
2023/10/01 16:30:19;;;;;;;0.00;0.00;;;25.70;66.50;;;;;;4872540;29;20152;-77
2023/10/01 16:32:53;;;;;;;0.00;0.00;;;25.60;67.20;;;;;;4887022;29;20032;-77
2023/10/01 16:35:31;;;;;;;0.00;0.00;;;25.60;67.30;;;;;;4885649;29;20133;-77
2023/10/01 16:38:03;;;;;;;0.00;0.00;;;25.60;67.70;;;;;;4866090;29;20017;-77
2023/10/01 16:40:30;;;;;;;0.00;0.00;;;25.50;67.90;;;;;;4870787;29;20489;-75
2023/10/01 16:42:59;;;;;;;0.00;0.00;;;25.50;68.60;;;;;;4891103;29;20036;-79
2023/10/01 16:45:28;;;;;;;0.00;0.00;;;25.40;68.50;;;;;;4874860;29;20028;-77
2023/10/01 16:48:03;;;;;;;0.00;0.00;;;25.40;68.60;;;;;;4895032;29;20437;-76
2023/10/01 16:50:48;;;;;;;0.00;0.00;;;25.40;68.70;;;;;;4872453;29;20032;-75
2023/10/01 16:53:18;;;;;;;0.00;0.00;;;25.30;68.80;;;;;;4878072;29;20497;-78
2023/10/01 16:55:48;;;;;;;0.00;0.00;;;25.30;68.90;;;;;;4887021;29;20071;-76
2023/10/01 16:58:15;;;;;;;0.00;0.00;;;25.30;69.00;;;;;;4895149;29;20021;-75
2023/10/01 17:00:41;;;;;;;0.00;0.00;;;25.20;69.20;;;;;;4896581;29;20040;-76
2023/10/01 17:03:10;;;;;;;0.00;0.00;;;25.30;69.50;;;;;;4874300;29;20497;-77
2023/10/01 17:05:44;;;;;;;0.00;0.00;;;25.20;69.80;;;;;;4872900;29;20036;-75
2023/10/01 17:08:18;;;;;;;0.00;0.00;;;25.10;69.90;;;;;;4901403;29;20036;-76
2023/10/01 17:10:44;;;;;;;0.00;0.00;;;25.00;70.90;;;;;;4894889;29;20032;-76
2023/10/01 17:13:14;;;;;;;0.00;0.00;;;24.90;71.30;;;;;;4886363;29;20055;-83
2023/10/01 17:15:45;;;;;;;0.03;0.00;;;24.80;71.50;;;;;;4891893;29;21392;-81
2023/10/01 17:18:18;;;;;;;0.00;0.00;;;24.80;71.90;;;;;;4887916;29;20032;-75
2023/10/01 17:20:52;;;;;;;0.00;0.00;;;24.70;72.10;;;;;;4877231;29;20024;-77
2023/10/01 17:23:19;;;;;;;0.00;0.00;;;24.60;72.40;;;;;;4869885;29;20033;-77
2023/10/01 17:25:47;;;;;;;0.00;0.00;;;24.50;72.60;;;;;;4878102;29;20037;-75
2023/10/01 17:28:27;;;;;;;0.00;0.00;;;24.50;72.70;;;;;;4899596;29;20481;-77
2023/10/01 17:30:54;;;;;;;0.00;0.00;;;24.40;73.00;;;;;;4888949;29;20028;-81
2023/10/01 17:33:30;;;;;;;0.00;0.00;;;24.30;73.20;;;;;;4873291;29;20073;-79
2023/10/01 17:36:04;;;;;;;0.00;0.00;;;24.30;73.30;;;;;;4869153;29;20060;-78
2023/10/01 17:38:31;;;;;;;0.00;0.00;;;24.30;73.60;;;;;;4889808;29;20084;-82
2023/10/01 17:40:57;;;;;;;0.00;0.00;;;24.20;73.80;;;;;;4898082;29;20063;-84
2023/10/01 17:43:27;;;;;;;0.13;0.00;;;24.10;73.90;;;;;;4882175;29;20036;-76
2023/10/01 17:46:02;;;;;;;0.00;0.00;;;24.10;74.10;;;;;;4896469;29;20028;-77
2023/10/01 17:48:31;;;;;;;0.00;0.00;;;24.00;74.30;;;;;;4885490;29;20032;-74
2023/10/01 17:50:58;;;;;;;0.00;0.00;;;23.90;74.40;;;;;;4893922;29;20041;-78
2023/10/01 17:53:25;;;;;;;0.00;0.00;;;23.90;74.50;;;;;;4862231;29;20543;-77
2023/10/01 17:55:54;;;;;;;0.00;0.00;;;23.90;74.60;;;;;;4897847;29;20031;-79
2023/10/01 17:58:23;;;;;;;0.00;0.00;;;23.80;74.60;;;;;;4884255;29;20037;-77
2023/10/01 18:00:52;;;;;;;0.00;0.00;;;23.70;74.80;;;;;;4902198;29;20035;-78
2023/10/01 18:03:27;;;;;;;0.00;0.00;;;23.70;74.90;;;;;;4885118;29;20119;-77
2023/10/01 18:05:58;;;;;;;0.00;0.00;;;23.60;75.10;;;;;;4882928;29;20759;-76
2023/10/01 18:08:27;;;;;;;0.00;0.00;;;23.60;75.10;;;;;;4884610;29;20037;-76
2023/10/01 18:10:59;;;;;;;0.00;0.00;;;23.50;75.30;;;;;;4865058;29;20044;-77
2023/10/01 18:13:26;;;;;;;0.00;0.00;;;23.50;75.40;;;;;;4877554;29;20048;-76
2023/10/01 18:15:57;;;;;;;0.00;0.00;;;23.50;75.60;;;;;;4870755;29;20036;-74
2023/10/01 18:18:26;;;;;;;0.00;0.00;;;23.40;75.50;;;;;;4861382;29;20033;-76
2023/10/01 18:20:56;;;;;;;0.10;0.00;;;23.40;75.70;;;;;;4887709;29;20108;-77
2023/10/01 18:23:24;;;;;;;0.00;0.00;;;23.30;75.60;;;;;;4901440;29;20136;-76
2023/10/01 18:25:53;;;;;;;0.00;0.00;;;23.40;75.80;;;;;;4900706;29;20032;-76
2023/10/01 18:28:29;;;;;;;0.00;0.00;;;23.30;75.90;;;;;;4886954;29;20154;-77
2023/10/01 18:30:56;;;;;;;0.00;0.00;;;23.30;75.90;;;;;;4855494;29;20033;-76
2023/10/01 18:33:28;;;;;;;0.00;0.00;;;23.20;76.10;;;;;;4880938;29;20033;-80
2023/10/01 18:35:57;;;;;;;0.10;0.10;;;23.20;76.40;;;;;;4873181;29;20044;-78
2023/10/01 18:38:25;;;;;;;0.00;0.00;;;23.20;76.30;;;;;;4882542;29;20191;-77
2023/10/01 18:40:52;;;;;;;0.13;0.00;;;23.10;76.30;;;;;;4894714;29;20027;-74
2023/10/01 18:43:19;;;;;;;0.00;0.00;;;23.10;76.20;;;;;;4886646;29;20047;-75
2023/10/01 18:45:46;;;;;;;0.00;0.00;;;23.10;76.40;;;;;;4889776;29;20167;-81
2023/10/01 18:48:11;;;;;;;0.00;0.00;;;23.00;76.50;;;;;;4887437;29;20032;-78
2023/10/01 18:50:37;;;;;;;0.00;0.00;;;23.00;76.50;;;;;;4888733;29;20116;-77
2023/10/01 18:53:03;;;;;;;0.00;0.00;;;23.00;76.50;;;;;;4866727;29;20143;-78
2023/10/01 18:55:30;;;;;;;0.00;0.00;;;22.80;76.80;;;;;;4873336;29;20449;-77
2023/10/01 18:57:56;;;;;;;0.00;0.00;;;22.80;77.10;;;;;;4875225;29;20529;-77